sensor_id;sensor_type;location;lat;lon;timestamp;temperature;humidity
1367;DHT22;16877;48.810;9.282;2023-09-19T00:00:36;26.40;81.80
1367;DHT22;16877;48.810;9.282;2023-09-19T00:03:04;26.50;81.90
1367;DHT22;16877;48.810;9.282;2023-09-19T00:05:37;26.50;81.90
1367;DHT22;16877;48.810;9.282;2023-09-19T00:08:05;26.60;82.20
1367;DHT22;16877;48.810;9.282;2023-09-19T00:10:34;26.70;82.40
1367;DHT22;16877;48.810;9.282;2023-09-19T00:13:02;26.60;82.50
1367;DHT22;16877;48.810;9.282;2023-09-19T00:15:40;26.70;82.80
1367;DHT22;16877;48.810;9.282;2023-09-19T00:18:08;26.50;82.70
1367;DHT22;16877;48.810;9.282;2023-09-19T00:20:38;26.50;82.70
1367;DHT22;16877;48.810;9.282;2023-09-19T00:23:07;26.90;83.10
1367;DHT22;16877;48.810;9.282;2023-09-19T00:25:35;26.60;83.80
1367;DHT22;16877;48.810;9.282;2023-09-19T00:28:03;26.40;82.50
1367;DHT22;16877;48.810;9.282;2023-09-19T00:30:30;26.90;82.90
1367;DHT22;16877;48.810;9.282;2023-09-19T00:33:00;26.80;82.60
1367;DHT22;16877;48.810;9.282;2023-09-19T00:35:31;26.70;82.60
1367;DHT22;16877;48.810;9.282;2023-09-19T00:37:58;26.60;82.90
1367;DHT22;16877;48.810;9.282;2023-09-19T00:40:26;26.60;82.80
1367;DHT22;16877;48.810;9.282;2023-09-19T00:42:57;26.60;82.50
1367;DHT22;16877;48.810;9.282;2023-09-19T00:45:26;26.30;82.00
1367;DHT22;16877;48.810;9.282;2023-09-19T00:47:54;26.40;82.40
1367;DHT22;16877;48.810;9.282;2023-09-19T00:50:25;26.60;82.40
1367;DHT22;16877;48.810;9.282;2023-09-19T00:52:55;26.60;82.30
1367;DHT22;16877;48.810;9.282;2023-09-19T00:55:24;26.40;82.00
1367;DHT22;16877;48.810;9.282;2023-09-19T00:57:56;26.20;81.90
1367;DHT22;16877;48.810;9.282;2023-09-19T01:00:24;26.60;82.50
1367;DHT22;16877;48.810;9.282;2023-09-19T01:02:52;26.40;81.90
1367;DHT22;16877;48.810;9.282;2023-09-19T01:05:20;26.70;82.30
1367;DHT22;16877;48.810;9.282;2023-09-19T01:07:49;26.50;82.20
1367;DHT22;16877;48.810;9.282;2023-09-19T01:10:18;26.40;82.00
1367;DHT22;16877;48.810;9.282;2023-09-19T01:12:54;26.20;81.90
1367;DHT22;16877;48.810;9.282;2023-09-19T01:15:32;26.60;82.20
1367;DHT22;16877;48.810;9.282;2023-09-19T01:18:11;26.40;82.00
1367;DHT22;16877;48.810;9.282;2023-09-19T01:20:47;26.30;81.90
1367;DHT22;16877;48.810;9.282;2023-09-19T01:23:25;26.40;82.20
1367;DHT22;16877;48.810;9.282;2023-09-19T01:26:18;26.50;82.50
1367;DHT22;16877;48.810;9.282;2023-09-19T01:28:56;26.20;82.10
1367;DHT22;16877;48.810;9.282;2023-09-19T01:31:36;26.30;82.40
1367;DHT22;16877;48.810;9.282;2023-09-19T01:34:06;26.30;82.40
1367;DHT22;16877;48.810;9.282;2023-09-19T01:36:35;26.40;82.40
1367;DHT22;16877;48.810;9.282;2023-09-19T01:39:05;26.50;83.30
1367;DHT22;16877;48.810;9.282;2023-09-19T01:41:45;26.30;82.20
1367;DHT22;16877;48.810;9.282;2023-09-19T01:44:18;26.50;82.00
1367;DHT22;16877;48.810;9.282;2023-09-19T01:46:50;26.20;82.10
1367;DHT22;16877;48.810;9.282;2023-09-19T01:49:27;26.20;82.10
1367;DHT22;16877;48.810;9.282;2023-09-19T01:52:04;26.60;82.30
1367;DHT22;16877;48.810;9.282;2023-09-19T01:54:36;26.30;82.00
1367;DHT22;16877;48.810;9.282;2023-09-19T01:57:11;26.40;82.00
1367;DHT22;16877;48.810;9.282;2023-09-19T01:59:52;26.40;81.80
1367;DHT22;16877;48.810;9.282;2023-09-19T02:02:24;26.30;81.60
1367;DHT22;16877;48.810;9.282;2023-09-19T02:04:52;26.30;81.40
1367;DHT22;16877;48.810;9.282;2023-09-19T02:07:22;26.50;81.60
1367;DHT22;16877;48.810;9.282;2023-09-19T02:09:50;26.70;81.60
1367;DHT22;16877;48.810;9.282;2023-09-19T02:12:17;26.60;81.20
1367;DHT22;16877;48.810;9.282;2023-09-19T02:14:45;26.60;80.90
1367;DHT22;16877;48.810;9.282;2023-09-19T02:17:14;26.70;80.80
1367;DHT22;16877;48.810;9.282;2023-09-19T02:19:42;26.50;80.50
1367;DHT22;16877;48.810;9.282;2023-09-19T02:22:10;26.80;80.80
1367;DHT22;16877;48.810;9.282;2023-09-19T02:24:37;26.60;80.60
1367;DHT22;16877;48.810;9.282;2023-09-19T02:27:05;26.60;80.20
1367;DHT22;16877;48.810;9.282;2023-09-19T02:29:33;26.90;80.50
1367;DHT22;16877;48.810;9.282;2023-09-19T02:32:00;26.80;80.50
1367;DHT22;16877;48.810;9.282;2023-09-19T02:34:28;26.50;80.40
1367;DHT22;16877;48.810;9.282;2023-09-19T02:36:57;26.90;80.70
1367;DHT22;16877;48.810;9.282;2023-09-19T02:39:24;26.80;80.40
1367;DHT22;16877;48.810;9.282;2023-09-19T02:41:52;26.50;80.20
1367;DHT22;16877;48.810;9.282;2023-09-19T02:44:19;26.70;80.50
1367;DHT22;16877;48.810;9.282;2023-09-19T02:46:49;26.50;80.20
1367;DHT22;16877;48.810;9.282;2023-09-19T02:49:16;26.60;80.30
1367;DHT22;16877;48.810;9.282;2023-09-19T02:51:44;26.60;80.30
1367;DHT22;16877;48.810;9.282;2023-09-19T02:54:16;26.90;80.40
1367;DHT22;16877;48.810;9.282;2023-09-19T02:56:45;26.90;80.50
1367;DHT22;16877;48.810;9.282;2023-09-19T02:59:13;26.80;80.10
1367;DHT22;16877;48.810;9.282;2023-09-19T03:01:43;26.50;79.80
1367;DHT22;16877;48.810;9.282;2023-09-19T03:04:13;26.70;80.00
1367;DHT22;16877;48.810;9.282;2023-09-19T03:06:45;26.70;80.00
1367;DHT22;16877;48.810;9.282;2023-09-19T03:09:18;26.80;80.10
1367;DHT22;16877;48.810;9.282;2023-09-19T03:11:45;26.60;80.00
1367;DHT22;16877;48.810;9.282;2023-09-19T03:14:13;26.60;80.00
1367;DHT22;16877;48.810;9.282;2023-09-19T03:16:41;26.90;80.20
1367;DHT22;16877;48.810;9.282;2023-09-19T03:19:10;26.90;80.20
1367;DHT22;16877;48.810;9.282;2023-09-19T03:21:38;27.00;80.40
1367;DHT22;16877;48.810;9.282;2023-09-19T03:24:06;26.80;80.00
1367;DHT22;16877;48.810;9.282;2023-09-19T03:26:35;26.80;80.10
1367;DHT22;16877;48.810;9.282;2023-09-19T03:29:03;26.70;80.10
1367;DHT22;16877;48.810;9.282;2023-09-19T03:31:33;26.50;79.90
1367;DHT22;16877;48.810;9.282;2023-09-19T03:34:02;26.70;80.00
1367;DHT22;16877;48.810;9.282;2023-09-19T03:36:30;26.70;80.10
1367;DHT22;16877;48.810;9.282;2023-09-19T03:38:57;26.40;80.00
1367;DHT22;16877;48.810;9.282;2023-09-19T03:41:25;26.50;80.10
1367;DHT22;16877;48.810;9.282;2023-09-19T03:43:54;26.50;80.20
1367;DHT22;16877;48.810;9.282;2023-09-19T03:46:23;26.80;80.60
1367;DHT22;16877;48.810;9.282;2023-09-19T03:48:51;26.50;80.30
1367;DHT22;16877;48.810;9.282;2023-09-19T03:51:22;26.40;80.40
1367;DHT22;16877;48.810;9.282;2023-09-19T03:53:51;26.90;81.00
1367;DHT22;16877;48.810;9.282;2023-09-19T03:56:18;26.60;80.50
1367;DHT22;16877;48.810;9.282;2023-09-19T03:58:46;26.60;80.50
1367;DHT22;16877;48.810;9.282;2023-09-19T04:01:18;26.80;81.00
1367;DHT22;16877;48.810;9.282;2023-09-19T04:03:46;26.60;81.00
1367;DHT22;16877;48.810;9.282;2023-09-19T04:06:13;26.80;81.10
1367;DHT22;16877;48.810;9.282;2023-09-19T04:08:41;26.60;80.90
1367;DHT22;16877;48.810;9.282;2023-09-19T04:11:09;26.70;81.00
1367;DHT22;16877;48.810;9.282;2023-09-19T04:13:37;26.80;80.80
1367;DHT22;16877;48.810;9.282;2023-09-19T04:16:04;26.60;80.60
1367;DHT22;16877;48.810;9.282;2023-09-19T04:18:34;26.60;80.50
1367;DHT22;16877;48.810;9.282;2023-09-19T04:21:04;26.60;80.50
1367;DHT22;16877;48.810;9.282;2023-09-19T04:23:31;26.70;80.80
1367;DHT22;16877;48.810;9.282;2023-09-19T04:25:58;26.70;80.60
1367;DHT22;16877;48.810;9.282;2023-09-19T04:28:25;26.70;80.50
1367;DHT22;16877;48.810;9.282;2023-09-19T04:30:53;26.90;81.00
1367;DHT22;16877;48.810;9.282;2023-09-19T04:33:20;26.90;81.20
1367;DHT22;16877;48.810;9.282;2023-09-19T04:35:52;27.10;81.50
1367;DHT22;16877;48.810;9.282;2023-09-19T04:38:19;26.90;81.30
1367;DHT22;16877;48.810;9.282;2023-09-19T04:40:47;26.90;81.50
1367;DHT22;16877;48.810;9.282;2023-09-19T04:43:14;27.00;81.40
1367;DHT22;16877;48.810;9.282;2023-09-19T04:45:41;26.80;81.10
1367;DHT22;16877;48.810;9.282;2023-09-19T04:48:08;27.00;81.20
1367;DHT22;16877;48.810;9.282;2023-09-19T04:50:36;26.80;81.10
1367;DHT22;16877;48.810;9.282;2023-09-19T04:53:07;26.80;81.00
1367;DHT22;16877;48.810;9.282;2023-09-19T04:55:34;27.00;80.90
1367;DHT22;16877;48.810;9.282;2023-09-19T04:58:02;26.90;81.10
1367;DHT22;16877;48.810;9.282;2023-09-19T05:00:29;26.80;80.90
1367;DHT22;16877;48.810;9.282;2023-09-19T05:03:00;27.10;80.60
1367;DHT22;16877;48.810;9.282;2023-09-19T05:05:29;26.90;80.40
1367;DHT22;16877;48.810;9.282;2023-09-19T05:07:57;26.80;80.20
1367;DHT22;16877;48.810;9.282;2023-09-19T05:10:27;26.70;80.10
1367;DHT22;16877;48.810;9.282;2023-09-19T05:12:55;26.80;80.40
1367;DHT22;16877;48.810;9.282;2023-09-19T05:15:27;27.10;81.10
1367;DHT22;16877;48.810;9.282;2023-09-19T05:17:54;26.70;81.20
1367;DHT22;16877;48.810;9.282;2023-09-19T05:20:21;26.90;81.60
1367;DHT22;16877;48.810;9.282;2023-09-19T05:22:57;26.60;81.80
1367;DHT22;16877;48.810;9.282;2023-09-19T05:25:27;26.70;82.20
1367;DHT22;16877;48.810;9.282;2023-09-19T05:27:55;26.50;82.50
1367;DHT22;16877;48.810;9.282;2023-09-19T05:30:23;26.50;82.50
1367;DHT22;16877;48.810;9.282;2023-09-19T05:32:55;26.50;82.70
1367;DHT22;16877;48.810;9.282;2023-09-19T05:35:27;26.70;83.00
1367;DHT22;16877;48.810;9.282;2023-09-19T05:37:58;26.70;83.40
1367;DHT22;16877;48.810;9.282;2023-09-19T05:40:27;26.80;83.60
1367;DHT22;16877;48.810;9.282;2023-09-19T05:42:55;26.50;83.50
1367;DHT22;16877;48.810;9.282;2023-09-19T05:45:32;26.80;83.80
1367;DHT22;16877;48.810;9.282;2023-09-19T05:48:07;26.50;83.70
1367;DHT22;16877;48.810;9.282;2023-09-19T05:50:35;26.60;84.00
1367;DHT22;16877;48.810;9.282;2023-09-19T05:53:03;26.60;84.10
1367;DHT22;16877;48.810;9.282;2023-09-19T05:55:33;26.40;83.90
1367;DHT22;16877;48.810;9.282;2023-09-19T05:58:01;26.60;84.40
1367;DHT22;16877;48.810;9.282;2023-09-19T06:00:29;26.70;84.40
1367;DHT22;16877;48.810;9.282;2023-09-19T06:02:58;26.30;84.20
1367;DHT22;16877;48.810;9.282;2023-09-19T06:05:26;26.40;84.00
1367;DHT22;16877;48.810;9.282;2023-09-19T06:07:59;26.30;84.00
1367;DHT22;16877;48.810;9.282;2023-09-19T06:10:27;26.40;83.80
1367;DHT22;16877;48.810;9.282;2023-09-19T06:12:57;26.30;83.70
1367;DHT22;16877;48.810;9.282;2023-09-19T06:15:24;26.10;83.70
1367;DHT22;16877;48.810;9.282;2023-09-19T06:17:54;26.30;83.90
1367;DHT22;16877;48.810;9.282;2023-09-19T06:20:23;26.40;83.90
1367;DHT22;16877;48.810;9.282;2023-09-19T06:22:53;26.00;83.50
1367;DHT22;16877;48.810;9.282;2023-09-19T06:25:23;26.00;83.80
1367;DHT22;16877;48.810;9.282;2023-09-19T06:27:51;25.90;83.30
1367;DHT22;16877;48.810;9.282;2023-09-19T06:30:21;26.10;83.50
1367;DHT22;16877;48.810;9.282;2023-09-19T06:32:49;25.90;83.40
1367;DHT22;16877;48.810;9.282;2023-09-19T06:35:23;26.00;83.40
1367;DHT22;16877;48.810;9.282;2023-09-19T06:37:51;26.40;83.90
1367;DHT22;16877;48.810;9.282;2023-09-19T06:40:23;26.00;83.50
1367;DHT22;16877;48.810;9.282;2023-09-19T06:42:51;26.20;83.50
1367;DHT22;16877;48.810;9.282;2023-09-19T06:45:21;26.10;83.50
1367;DHT22;16877;48.810;9.282;2023-09-19T06:47:52;26.10;83.60
1367;DHT22;16877;48.810;9.282;2023-09-19T06:50:23;25.80;83.40
1367;DHT22;16877;48.810;9.282;2023-09-19T06:52:51;26.00;83.60
1367;DHT22;16877;48.810;9.282;2023-09-19T06:55:20;26.20;83.60
1367;DHT22;16877;48.810;9.282;2023-09-19T06:57:51;26.10;83.60
1367;DHT22;16877;48.810;9.282;2023-09-19T07:00:21;26.20;83.60
1367;DHT22;16877;48.810;9.282;2023-09-19T07:02:55;26.20;83.60
1367;DHT22;16877;48.810;9.282;2023-09-19T07:05:24;26.20;83.40
1367;DHT22;16877;48.810;9.282;2023-09-19T07:07:53;26.40;83.50
1367;DHT22;16877;48.810;9.282;2023-09-19T07:10:20;26.40;83.30
1367;DHT22;16877;48.810;9.282;2023-09-19T07:12:54;26.50;83.20
1367;DHT22;16877;48.810;9.282;2023-09-19T07:15:29;26.40;83.00
1367;DHT22;16877;48.810;9.282;2023-09-19T07:17:59;26.70;83.00
1367;DHT22;16877;48.810;9.282;2023-09-19T07:20:37;26.80;82.80
1367;DHT22;16877;48.810;9.282;2023-09-19T07:23:04;27.00;82.60
1367;DHT22;16877;48.810;9.282;2023-09-19T07:25:32;26.90;82.20
1367;DHT22;16877;48.810;9.282;2023-09-19T07:28:00;27.20;82.30
1367;DHT22;16877;48.810;9.282;2023-09-19T07:30:44;27.30;82.20
1367;DHT22;16877;48.810;9.282;2023-09-19T07:33:11;27.00;81.50
1367;DHT22;16877;48.810;9.282;2023-09-19T07:35:39;27.10;81.30
1367;DHT22;16877;48.810;9.282;2023-09-19T07:38:06;27.10;81.50
1367;DHT22;16877;48.810;9.282;2023-09-19T07:40:34;27.40;81.30
1367;DHT22;16877;48.810;9.282;2023-09-19T07:43:02;27.50;80.90
1367;DHT22;16877;48.810;9.282;2023-09-19T07:45:33;27.60;80.70
1367;DHT22;16877;48.810;9.282;2023-09-19T07:48:10;27.70;80.70
1367;DHT22;16877;48.810;9.282;2023-09-19T07:50:40;27.80;80.10
1367;DHT22;16877;48.810;9.282;2023-09-19T07:53:09;27.90;79.90
1367;DHT22;16877;48.810;9.282;2023-09-19T07:55:39;27.90;79.60
1367;DHT22;16877;48.810;9.282;2023-09-19T07:58:06;28.00;79.40
1367;DHT22;16877;48.810;9.282;2023-09-19T08:00:34;27.90;78.90
1367;DHT22;16877;48.810;9.282;2023-09-19T08:03:01;28.20;78.50
1367;DHT22;16877;48.810;9.282;2023-09-19T08:05:31;28.20;78.00
1367;DHT22;16877;48.810;9.282;2023-09-19T08:07:59;28.20;77.50
1367;DHT22;16877;48.810;9.282;2023-09-19T08:10:27;28.20;77.10
1367;DHT22;16877;48.810;9.282;2023-09-19T08:13:00;28.30;76.80
1367;DHT22;16877;48.810;9.282;2023-09-19T08:15:28;28.50;77.00
1367;DHT22;16877;48.810;9.282;2023-09-19T08:17:56;28.70;76.90
1367;DHT22;16877;48.810;9.282;2023-09-19T08:20:27;28.70;76.90
1367;DHT22;16877;48.810;9.282;2023-09-19T08:22:56;28.80;76.30
1367;DHT22;16877;48.810;9.282;2023-09-19T08:25:24;29.10;75.10
1367;DHT22;16877;48.810;9.282;2023-09-19T08:27:52;29.60;76.00
1367;DHT22;16877;48.810;9.282;2023-09-19T08:30:24;29.40;74.60
1367;DHT22;16877;48.810;9.282;2023-09-19T08:33:08;29.70;73.50
1367;DHT22;16877;48.810;9.282;2023-09-19T08:36:00;30.10;73.80
1367;DHT22;16877;48.810;9.282;2023-09-19T08:38:33;29.80;72.60
1367;DHT22;16877;48.810;9.282;2023-09-19T08:41:13;29.90;72.10
1367;DHT22;16877;48.810;9.282;2023-09-19T08:43:42;30.30;72.30
1367;DHT22;16877;48.810;9.282;2023-09-19T08:46:15;30.90;72.70
1367;DHT22;16877;48.810;9.282;2023-09-19T08:48:46;30.70;71.90
1367;DHT22;16877;48.810;9.282;2023-09-19T08:51:22;30.70;71.30
1367;DHT22;16877;48.810;9.282;2023-09-19T08:54:04;30.70;70.50
1367;DHT22;16877;48.810;9.282;2023-09-19T08:56:44;30.80;70.20
1367;DHT22;16877;48.810;9.282;2023-09-19T08:59:13;30.80;69.90
1367;DHT22;16877;48.810;9.282;2023-09-19T09:01:42;30.90;69.90
1367;DHT22;16877;48.810;9.282;2023-09-19T09:04:10;30.90;69.80
1367;DHT22;16877;48.810;9.282;2023-09-19T09:06:39;31.00;69.20
1367;DHT22;16877;48.810;9.282;2023-09-19T09:09:10;30.80;69.10
1367;DHT22;16877;48.810;9.282;2023-09-19T09:11:39;30.90;69.10
1367;DHT22;16877;48.810;9.282;2023-09-19T09:14:07;31.00;69.20
1367;DHT22;16877;48.810;9.282;2023-09-19T09:16:34;31.40;69.20
1367;DHT22;16877;48.810;9.282;2023-09-19T09:19:03;31.50;68.00
1367;DHT22;16877;48.810;9.282;2023-09-19T09:21:33;31.90;67.90
1367;DHT22;16877;48.810;9.282;2023-09-19T09:24:30;31.60;66.20
1367;DHT22;16877;48.810;9.282;2023-09-19T09:27:00;31.80;65.70
1367;DHT22;16877;48.810;9.282;2023-09-19T09:29:44;31.50;65.20
1367;DHT22;16877;48.810;9.282;2023-09-19T09:32:23;31.90;64.90
1367;DHT22;16877;48.810;9.282;2023-09-19T09:34:52;32.10;64.30
1367;DHT22;16877;48.810;9.282;2023-09-19T09:37:20;32.20;63.70
1367;DHT22;16877;48.810;9.282;2023-09-19T09:39:52;32.50;63.00
1367;DHT22;16877;48.810;9.282;2023-09-19T09:42:31;32.70;62.00
1367;DHT22;16877;48.810;9.282;2023-09-19T09:45:14;32.90;60.40
1367;DHT22;16877;48.810;9.282;2023-09-19T09:47:42;33.30;59.40
1367;DHT22;16877;48.810;9.282;2023-09-19T09:50:26;33.40;58.80
1367;DHT22;16877;48.810;9.282;2023-09-19T09:53:03;33.60;58.60
1367;DHT22;16877;48.810;9.282;2023-09-19T09:55:58;33.80;59.00
1367;DHT22;16877;48.810;9.282;2023-09-19T09:58:25;34.10;58.00
1367;DHT22;16877;48.810;9.282;2023-09-19T10:00:55;34.20;58.20
1367;DHT22;16877;48.810;9.282;2023-09-19T10:03:31;34.60;57.60
1367;DHT22;16877;48.810;9.282;2023-09-19T10:06:00;34.90;57.00
1367;DHT22;16877;48.810;9.282;2023-09-19T10:08:34;35.40;57.00
1367;DHT22;16877;48.810;9.282;2023-09-19T10:11:16;34.90;55.70
1367;DHT22;16877;48.810;9.282;2023-09-19T10:13:56;34.80;55.60
1367;DHT22;16877;48.810;9.282;2023-09-19T10:16:24;34.50;55.60
1367;DHT22;16877;48.810;9.282;2023-09-19T10:18:53;33.90;55.20
1367;DHT22;16877;48.810;9.282;2023-09-19T10:21:24;33.80;55.40
1367;DHT22;16877;48.810;9.282;2023-09-19T10:23:58;33.50;56.20
1367;DHT22;16877;48.810;9.282;2023-09-19T10:26:28;33.30;56.80
1367;DHT22;16877;48.810;9.282;2023-09-19T10:28:57;33.20;57.00
1367;DHT22;16877;48.810;9.282;2023-09-19T10:31:27;33.20;57.10
1367;DHT22;16877;48.810;9.282;2023-09-19T10:33:56;33.10;57.40
1367;DHT22;16877;48.810;9.282;2023-09-19T10:36:24;32.80;57.40
1367;DHT22;16877;48.810;9.282;2023-09-19T10:38:55;32.80;57.50
1367;DHT22;16877;48.810;9.282;2023-09-19T10:41:36;32.70;56.40
1367;DHT22;16877;48.810;9.282;2023-09-19T10:44:07;32.60;56.40
1367;DHT22;16877;48.810;9.282;2023-09-19T10:46:35;33.10;56.50
1367;DHT22;16877;48.810;9.282;2023-09-19T10:49:04;33.20;56.00
1367;DHT22;16877;48.810;9.282;2023-09-19T10:51:39;33.50;56.00
1367;DHT22;16877;48.810;9.282;2023-09-19T10:54:10;33.30;55.90
1367;DHT22;16877;48.810;9.282;2023-09-19T10:56:43;33.60;56.30
1367;DHT22;16877;48.810;9.282;2023-09-19T10:59:26;34.00;55.90
1367;DHT22;16877;48.810;9.282;2023-09-19T11:02:15;34.10;55.40
1367;DHT22;16877;48.810;9.282;2023-09-19T11:04:43;34.10;55.90
1367;DHT22;16877;48.810;9.282;2023-09-19T11:07:14;34.40;55.40
1367;DHT22;16877;48.810;9.282;2023-09-19T11:09:46;34.50;54.60
1367;DHT22;16877;48.810;9.282;2023-09-19T11:18:53;34.70;53.90
1367;DHT22;16877;48.810;9.282;2023-09-19T11:21:51;34.10;54.10
1367;DHT22;16877;48.810;9.282;2023-09-19T11:24:33;33.50;54.80
1367;DHT22;16877;48.810;9.282;2023-09-19T11:27:14;33.50;55.00
1367;DHT22;16877;48.810;9.282;2023-09-19T11:30:25;34.10;55.40
1367;DHT22;16877;48.810;9.282;2023-09-19T11:33:17;34.00;55.30
1367;DHT22;16877;48.810;9.282;2023-09-19T11:35:59;34.30;54.60
1367;DHT22;16877;48.810;9.282;2023-09-19T11:38:59;34.30;54.60
1367;DHT22;16877;48.810;9.282;2023-09-19T11:42:40;34.60;53.90
1367;DHT22;16877;48.810;9.282;2023-09-19T11:48:08;34.40;52.90
1367;DHT22;16877;48.810;9.282;2023-09-19T11:50:43;34.30;53.10
1367;DHT22;16877;48.810;9.282;2023-09-19T11:53:10;34.10;53.00
1367;DHT22;16877;48.810;9.282;2023-09-19T11:55:37;33.80;53.20
1367;DHT22;16877;48.810;9.282;2023-09-19T11:58:08;33.60;53.20
1367;DHT22;16877;48.810;9.282;2023-09-19T12:00:40;33.80;53.20
1367;DHT22;16877;48.810;9.282;2023-09-19T12:03:10;33.80;53.10
1367;DHT22;16877;48.810;9.282;2023-09-19T12:05:39;33.90;53.20
1367;DHT22;16877;48.810;9.282;2023-09-19T12:08:07;34.00;53.20
1367;DHT22;16877;48.810;9.282;2023-09-19T12:10:45;33.90;53.70
1367;DHT22;16877;48.810;9.282;2023-09-19T12:13:17;33.90;53.20
1367;DHT22;16877;48.810;9.282;2023-09-19T12:15:44;34.00;53.20
1367;DHT22;16877;48.810;9.282;2023-09-19T12:18:26;34.10;53.30
1367;DHT22;16877;48.810;9.282;2023-09-19T12:20:54;34.00;53.30
1367;DHT22;16877;48.810;9.282;2023-09-19T12:23:21;34.30;53.20
1367;DHT22;16877;48.810;9.282;2023-09-19T12:25:48;34.20;52.80
1367;DHT22;16877;48.810;9.282;2023-09-19T12:28:21;34.50;53.20
1367;DHT22;16877;48.810;9.282;2023-09-19T12:30:49;34.40;53.40
1367;DHT22;16877;48.810;9.282;2023-09-19T12:33:21;34.70;53.50
1367;DHT22;16877;48.810;9.282;2023-09-19T12:35:51;34.50;53.30
1367;DHT22;16877;48.810;9.282;2023-09-19T12:38:24;34.70;53.50
1367;DHT22;16877;48.810;9.282;2023-09-19T12:40:54;35.00;53.90
1367;DHT22;16877;48.810;9.282;2023-09-19T12:43:26;35.10;53.60
1367;DHT22;16877;48.810;9.282;2023-09-19T12:45:56;35.30;53.40
1367;DHT22;16877;48.810;9.282;2023-09-19T12:48:26;35.10;52.80
1367;DHT22;16877;48.810;9.282;2023-09-19T12:51:04;35.30;52.90
1367;DHT22;16877;48.810;9.282;2023-09-19T12:53:32;35.20;52.90
1367;DHT22;16877;48.810;9.282;2023-09-19T12:56:03;35.10;53.00
1367;DHT22;16877;48.810;9.282;2023-09-19T12:58:48;34.90;52.90
1367;DHT22;16877;48.810;9.282;2023-09-19T13:01:16;35.10;53.30
1367;DHT22;16877;48.810;9.282;2023-09-19T13:03:43;35.30;53.00
1367;DHT22;16877;48.810;9.282;2023-09-19T13:06:11;35.20;52.90
1367;DHT22;16877;48.810;9.282;2023-09-19T13:08:42;34.90;52.80
1367;DHT22;16877;48.810;9.282;2023-09-19T13:11:15;34.40;52.80
1367;DHT22;16877;48.810;9.282;2023-09-19T13:13:48;34.20;53.40
1367;DHT22;16877;48.810;9.282;2023-09-19T13:16:19;34.40;53.40
1367;DHT22;16877;48.810;9.282;2023-09-19T13:18:49;34.20;53.50
1367;DHT22;16877;48.810;9.282;2023-09-19T13:21:28;34.40;53.90
1367;DHT22;16877;48.810;9.282;2023-09-19T13:24:18;34.70;53.50
1367;DHT22;16877;48.810;9.282;2023-09-19T13:26:46;34.70;53.30
1367;DHT22;16877;48.810;9.282;2023-09-19T13:29:15;34.80;53.60
1367;DHT22;16877;48.810;9.282;2023-09-19T13:31:46;34.60;53.40
1367;DHT22;16877;48.810;9.282;2023-09-19T13:34:13;34.90;53.50
1367;DHT22;16877;48.810;9.282;2023-09-19T13:36:42;34.90;53.30
1367;DHT22;16877;48.810;9.282;2023-09-19T13:39:09;35.20;53.40
1367;DHT22;16877;48.810;9.282;2023-09-19T13:41:38;35.30;53.00
1367;DHT22;16877;48.810;9.282;2023-09-19T13:44:06;35.60;52.80
1367;DHT22;16877;48.810;9.282;2023-09-19T13:46:38;35.60;52.80
1367;DHT22;16877;48.810;9.282;2023-09-19T13:49:06;35.80;52.80
1367;DHT22;16877;48.810;9.282;2023-09-19T13:51:35;36.00;52.10
1367;DHT22;16877;48.810;9.282;2023-09-19T13:54:09;36.30;52.20
1367;DHT22;16877;48.810;9.282;2023-09-19T13:56:37;36.40;51.90
1367;DHT22;16877;48.810;9.282;2023-09-19T13:59:05;36.40;51.80
1367;DHT22;16877;48.810;9.282;2023-09-19T14:01:32;36.10;51.80
1367;DHT22;16877;48.810;9.282;2023-09-19T14:04:03;35.90;51.90
1367;DHT22;16877;48.810;9.282;2023-09-19T14:06:31;35.50;52.10
1367;DHT22;16877;48.810;9.282;2023-09-19T14:08:59;34.70;52.30
1367;DHT22;16877;48.810;9.282;2023-09-19T14:11:27;34.50;52.80
1367;DHT22;16877;48.810;9.282;2023-09-19T14:13:54;34.70;52.70
1367;DHT22;16877;48.810;9.282;2023-09-19T14:16:21;34.80;52.60
1367;DHT22;16877;48.810;9.282;2023-09-19T14:18:50;35.20;52.40
1367;DHT22;16877;48.810;9.282;2023-09-19T14:21:19;35.10;52.10
1367;DHT22;16877;48.810;9.282;2023-09-19T14:23:47;34.90;52.10
1367;DHT22;16877;48.810;9.282;2023-09-19T14:26:15;34.90;52.50
1367;DHT22;16877;48.810;9.282;2023-09-19T14:28:44;34.90;52.50
1367;DHT22;16877;48.810;9.282;2023-09-19T14:31:11;34.50;52.40
1367;DHT22;16877;48.810;9.282;2023-09-19T14:33:40;33.90;51.90
1367;DHT22;16877;48.810;9.282;2023-09-19T14:36:10;33.50;52.40
1367;DHT22;16877;48.810;9.282;2023-09-19T14:38:40;33.30;53.00
1367;DHT22;16877;48.810;9.282;2023-09-19T14:41:08;33.20;53.70
1367;DHT22;16877;48.810;9.282;2023-09-19T14:43:36;33.10;54.70
1367;DHT22;16877;48.810;9.282;2023-09-19T14:46:03;33.20;54.20
1367;DHT22;16877;48.810;9.282;2023-09-19T14:48:30;33.30;54.20
1367;DHT22;16877;48.810;9.282;2023-09-19T14:51:02;33.70;54.40
1367;DHT22;16877;48.810;9.282;2023-09-19T14:53:29;33.70;53.80
1367;DHT22;16877;48.810;9.282;2023-09-19T14:56:00;33.60;53.80
1367;DHT22;16877;48.810;9.282;2023-09-19T14:58:28;33.80;53.80
1367;DHT22;16877;48.810;9.282;2023-09-19T15:01:02;33.90;53.00
1367;DHT22;16877;48.810;9.282;2023-09-19T15:03:30;34.10;53.10
1367;DHT22;16877;48.810;9.282;2023-09-19T15:05:59;33.90;53.20
1367;DHT22;16877;48.810;9.282;2023-09-19T15:08:27;33.90;53.80
1367;DHT22;16877;48.810;9.282;2023-09-19T15:10:54;33.70;53.70
1367;DHT22;16877;48.810;9.282;2023-09-19T15:13:25;33.50;54.00
1367;DHT22;16877;48.810;9.282;2023-09-19T15:15:59;33.60;53.70
1367;DHT22;16877;48.810;9.282;2023-09-19T15:18:26;33.20;53.70
1367;DHT22;16877;48.810;9.282;2023-09-19T15:20:53;33.00;53.60
1367;DHT22;16877;48.810;9.282;2023-09-19T15:23:21;32.90;54.10
1367;DHT22;16877;48.810;9.282;2023-09-19T15:25:48;33.00;54.40
1367;DHT22;16877;48.810;9.282;2023-09-19T15:28:15;33.00;54.50
1367;DHT22;16877;48.810;9.282;2023-09-19T15:30:45;32.90;54.30
1367;DHT22;16877;48.810;9.282;2023-09-19T15:33:12;33.10;54.60
1367;DHT22;16877;48.810;9.282;2023-09-19T15:35:40;33.00;54.10
1367;DHT22;16877;48.810;9.282;2023-09-19T15:38:07;33.00;54.20
1367;DHT22;16877;48.810;9.282;2023-09-19T15:40:35;32.70;54.20
1367;DHT22;16877;48.810;9.282;2023-09-19T15:43:02;32.60;54.40
1367;DHT22;16877;48.810;9.282;2023-09-19T15:45:30;32.30;54.40
1367;DHT22;16877;48.810;9.282;2023-09-19T15:47:59;32.00;54.70
1367;DHT22;16877;48.810;9.282;2023-09-19T15:50:26;31.00;54.70
1367;DHT22;16877;48.810;9.282;2023-09-19T15:52:55;31.00;55.60
1367;DHT22;16877;48.810;9.282;2023-09-19T15:55:23;30.70;56.00
1367;DHT22;16877;48.810;9.282;2023-09-19T15:57:51;30.60;56.40
1367;DHT22;16877;48.810;9.282;2023-09-19T16:00:19;30.10;56.50
1367;DHT22;16877;48.810;9.282;2023-09-19T16:02:48;30.40;57.30
1367;DHT22;16877;48.810;9.282;2023-09-19T16:05:17;30.60;57.20
1367;DHT22;16877;48.810;9.282;2023-09-19T16:07:45;30.70;57.30
1367;DHT22;16877;48.810;9.282;2023-09-19T16:10:13;30.80;57.20
1367;DHT22;16877;48.810;9.282;2023-09-19T16:12:41;30.90;57.20
1367;DHT22;16877;48.810;9.282;2023-09-19T16:15:09;30.80;57.20
1367;DHT22;16877;48.810;9.282;2023-09-19T16:17:39;31.10;57.30